sensor_id;sensor_type;location;lat;lon;timestamp;pressure;altitude;pressure_sealevel;temperature
14666;BMP280;7420;53.574;10.040;2023-03-11T00:02:06;99530.47;;;-0.05
14666;BMP280;7420;53.574;10.040;2023-03-11T00:04:31;99539.41;;;0.00
14666;BMP280;7420;53.574;10.040;2023-03-11T00:06:57;99554.44;;;-0.02
14666;BMP280;7420;53.574;10.040;2023-03-11T00:09:22;99553.28;;;0.01
14666;BMP280;7420;53.574;10.040;2023-03-11T00:11:48;99562.28;;;-0.02
14666;BMP280;7420;53.574;10.040;2023-03-11T00:14:13;99561.63;;;-0.03
14666;BMP280;7420;53.574;10.040;2023-03-11T00:16:39;99574.34;;;-0.01
14666;BMP280;7420;53.574;10.040;2023-03-11T00:19:04;99574.66;;;0.04
14666;BMP280;7420;53.574;10.040;2023-03-11T00:21:29;99587.09;;;0.02
14666;BMP280;7420;53.574;10.040;2023-03-11T00:23:55;99591.00;;;-0.02
14666;BMP280;7420;53.574;10.040;2023-03-11T00:26:22;99585.59;;;0.08
14666;BMP280;7420;53.574;10.040;2023-03-11T00:28:47;99595.78;;;-0.05
14666;BMP280;7420;53.574;10.040;2023-03-11T00:31:13;99607.34;;;0.00
14666;BMP280;7420;53.574;10.040;2023-03-11T00:33:38;99605.03;;;0.05
14666;BMP280;7420;53.574;10.040;2023-03-11T00:36:04;99619.72;;;0.06
14666;BMP280;7420;53.574;10.040;2023-03-11T00:38:31;99619.09;;;0.04
14666;BMP280;7420;53.574;10.040;2023-03-11T00:40:56;99619.22;;;0.03
14666;BMP280;7420;53.574;10.040;2023-03-11T00:43:21;99614.16;;;0.09
14666;BMP280;7420;53.574;10.040;2023-03-11T00:45:47;99627.25;;;0.01
14666;BMP280;7420;53.574;10.040;2023-03-11T00:48:13;99637.53;;;0.03
14666;BMP280;7420;53.574;10.040;2023-03-11T00:50:39;99645.84;;;0.06
14666;BMP280;7420;53.574;10.040;2023-03-11T00:53:05;99639.31;;;0.10
14666;BMP280;7420;53.574;10.040;2023-03-11T00:58:00;99652.06;;;0.05
14666;BMP280;7420;53.574;10.040;2023-03-11T01:00:27;99655.16;;;0.09
14666;BMP280;7420;53.574;10.040;2023-03-11T01:02:54;99664.47;;;0.11
14666;BMP280;7420;53.574;10.040;2023-03-11T01:05:21;99670.16;;;0.07
14666;BMP280;7420;53.574;10.040;2023-03-11T01:07:48;99668.72;;;0.12
14666;BMP280;7420;53.574;10.040;2023-03-11T01:10:14;99676.88;;;0.09
14666;BMP280;7420;53.574;10.040;2023-03-11T01:12:40;99672.97;;;0.13
14666;BMP280;7420;53.574;10.040;2023-03-11T01:15:06;99673.13;;;0.04
14666;BMP280;7420;53.574;10.040;2023-03-11T01:17:32;99680.63;;;0.07
14666;BMP280;7420;53.574;10.040;2023-03-11T01:19:57;99690.28;;;0.06
14666;BMP280;7420;53.574;10.040;2023-03-11T01:22:23;99694.53;;;0.07
14666;BMP280;7420;53.574;10.040;2023-03-11T01:24:48;99692.88;;;0.06
14666;BMP280;7420;53.574;10.040;2023-03-11T01:27:14;99690.59;;;0.11
14666;BMP280;7420;53.574;10.040;2023-03-11T01:29:39;99710.19;;;0.07
14666;BMP280;7420;53.574;10.040;2023-03-11T01:32:05;99711.66;;;0.10
14666;BMP280;7420;53.574;10.040;2023-03-11T01:34:31;99717.56;;;-0.04
14666;BMP280;7420;53.574;10.040;2023-03-11T01:37:00;99721.97;;;0.03
14666;BMP280;7420;53.574;10.040;2023-03-11T01:39:25;99718.69;;;-0.06
14666;BMP280;7420;53.574;10.040;2023-03-11T01:41:50;99724.88;;;0.08
14666;BMP280;7420;53.574;10.040;2023-03-11T01:44:17;99727.84;;;0.05
14666;BMP280;7420;53.574;10.040;2023-03-11T01:49:18;99736.31;;;-0.08
14666;BMP280;7420;53.574;10.040;2023-03-11T01:51:46;99731.09;;;-0.08
14666;BMP280;7420;53.574;10.040;2023-03-11T01:54:17;99730.78;;;-0.05
14666;BMP280;7420;53.574;10.040;2023-03-11T01:56:45;99726.38;;;-0.05
14666;BMP280;7420;53.574;10.040;2023-03-11T01:59:13;99737.97;;;-0.07
14666;BMP280;7420;53.574;10.040;2023-03-11T02:01:50;99742.19;;;-0.14
14666;BMP280;7420;53.574;10.040;2023-03-11T02:04:17;99738.28;;;-0.10
14666;BMP280;7420;53.574;10.040;2023-03-11T02:06:43;99738.94;;;-0.16
14666;BMP280;7420;53.574;10.040;2023-03-11T02:09:08;99745.78;;;-0.15
14666;BMP280;7420;53.574;10.040;2023-03-11T02:11:34;99746.78;;;-0.08
14666;BMP280;7420;53.574;10.040;2023-03-11T02:14:02;99760.50;;;-0.06
14666;BMP280;7420;53.574;10.040;2023-03-11T02:16:28;99766.53;;;-0.06
14666;BMP280;7420;53.574;10.040;2023-03-11T02:18:54;99772.09;;;-0.09
14666;BMP280;7420;53.574;10.040;2023-03-11T02:21:29;99782.88;;;-0.12
14666;BMP280;7420;53.574;10.040;2023-03-11T02:29:19;99793.47;;;-0.21
14666;BMP280;7420;53.574;10.040;2023-03-11T02:31:45;99793.13;;;-0.26
14666;BMP280;7420;53.574;10.040;2023-03-11T02:34:23;99795.75;;;-0.26
14666;BMP280;7420;53.574;10.040;2023-03-11T02:36:48;99809.91;;;-0.37
14666;BMP280;7420;53.574;10.040;2023-03-11T02:39:14;99805.38;;;-0.27
14666;BMP280;7420;53.574;10.040;2023-03-11T02:41:43;99826.41;;;-0.36
14666;BMP280;7420;53.574;10.040;2023-03-11T02:44:10;99825.59;;;-0.29
14666;BMP280;7420;53.574;10.040;2023-03-11T02:46:39;99828.06;;;-0.35
14666;BMP280;7420;53.574;10.040;2023-03-11T02:49:06;99833.28;;;-0.35
14666;BMP280;7420;53.574;10.040;2023-03-11T02:51:31;99845.97;;;-0.40
14666;BMP280;7420;53.574;10.040;2023-03-11T02:54:00;99844.22;;;-0.40
14666;BMP280;7420;53.574;10.040;2023-03-11T02:56:27;99838.00;;;-0.31
14666;BMP280;7420;53.574;10.040;2023-03-11T02:58:53;99852.53;;;-0.36
14666;BMP280;7420;53.574;10.040;2023-03-11T03:01:18;99854.31;;;-0.45
14666;BMP280;7420;53.574;10.040;2023-03-11T03:03:43;99850.53;;;-0.42
14666;BMP280;7420;53.574;10.040;2023-03-11T03:06:09;99850.06;;;-0.38
14666;BMP280;7420;53.574;10.040;2023-03-11T03:08:34;99871.78;;;-0.37
14666;BMP280;7420;53.574;10.040;2023-03-11T03:11:00;99868.19;;;-0.36
14666;BMP280;7420;53.574;10.040;2023-03-11T03:13:27;99868.16;;;-0.44
14666;BMP280;7420;53.574;10.040;2023-03-11T03:15:53;99876.00;;;-0.44
14666;BMP280;7420;53.574;10.040;2023-03-11T03:18:19;99880.88;;;-0.49
14666;BMP280;7420;53.574;10.040;2023-03-11T03:20:44;99888.03;;;-0.51
14666;BMP280;7420;53.574;10.040;2023-03-11T03:23:09;99892.13;;;-0.57
14666;BMP280;7420;53.574;10.040;2023-03-11T03:25:35;99894.38;;;-0.62
14666;BMP280;7420;53.574;10.040;2023-03-11T03:28:00;99905.66;;;-0.61
14666;BMP280;7420;53.574;10.040;2023-03-11T03:30:26;99899.28;;;-0.59
14666;BMP280;7420;53.574;10.040;2023-03-11T03:32:54;99909.22;;;-0.62
14666;BMP280;7420;53.574;10.040;2023-03-11T03:35:19;99913.63;;;-0.63
14666;BMP280;7420;53.574;10.040;2023-03-11T03:37:45;99918.31;;;-0.74
14666;BMP280;7420;53.574;10.040;2023-03-11T03:40:11;99917.63;;;-0.76
14666;BMP280;7420;53.574;10.040;2023-03-11T03:42:37;99929.41;;;-0.72
14666;BMP280;7420;53.574;10.040;2023-03-11T03:45:04;99930.13;;;-0.62
14666;BMP280;7420;53.574;10.040;2023-03-11T03:47:31;99936.47;;;-0.57
14666;BMP280;7420;53.574;10.040;2023-03-11T03:49:56;99945.13;;;-0.56
14666;BMP280;7420;53.574;10.040;2023-03-11T03:52:21;99940.53;;;-0.62
14666;BMP280;7420;53.574;10.040;2023-03-11T03:54:47;99951.19;;;-0.56
14666;BMP280;7420;53.574;10.040;2023-03-11T03:57:12;99954.59;;;-0.55
14666;BMP280;7420;53.574;10.040;2023-03-11T03:59:38;99951.19;;;-0.56
14666;BMP280;7420;53.574;10.040;2023-03-11T04:02:03;99964.69;;;-0.60
14666;BMP280;7420;53.574;10.040;2023-03-11T04:04:29;99962.41;;;-0.55
14666;BMP280;7420;53.574;10.040;2023-03-11T04:06:54;99966.34;;;-0.59
14666;BMP280;7420;53.574;10.040;2023-03-11T04:09:20;99970.41;;;-0.57
14666;BMP280;7420;53.574;10.040;2023-03-11T04:11:45;99977.41;;;-0.65
14666;BMP280;7420;53.574;10.040;2023-03-11T04:14:11;99972.84;;;-0.55
14666;BMP280;7420;53.574;10.040;2023-03-11T04:16:36;99975.03;;;-0.51
14666;BMP280;7420;53.574;10.040;2023-03-11T04:19:02;99982.03;;;-0.51
14666;BMP280;7420;53.574;10.040;2023-03-11T04:21:30;99980.88;;;-0.57
14666;BMP280;7420;53.574;10.040;2023-03-11T04:23:56;99982.94;;;-0.68
14666;BMP280;7420;53.574;10.040;2023-03-11T04:26:21;99978.91;;;-0.55
14666;BMP280;7420;53.574;10.040;2023-03-11T04:28:47;99984.94;;;-0.54
14666;BMP280;7420;53.574;10.040;2023-03-11T04:31:12;99982.00;;;-0.59
14666;BMP280;7420;53.574;10.040;2023-03-11T04:33:37;99982.00;;;-0.59
14666;BMP280;7420;53.574;10.040;2023-03-11T04:36:05;99981.47;;;-0.63
14666;BMP280;7420;53.574;10.040;2023-03-11T04:38:30;99987.53;;;-0.62
14666;BMP280;7420;53.574;10.040;2023-03-11T04:41:00;99987.53;;;-0.62
14666;BMP280;7420;53.574;10.040;2023-03-11T04:46:11;99981.66;;;-0.64
14666;BMP280;7420;53.574;10.040;2023-03-11T04:48:37;99994.16;;;-0.68
14666;BMP280;7420;53.574;10.040;2023-03-11T04:51:02;99999.03;;;-0.73
14666;BMP280;7420;53.574;10.040;2023-03-11T04:53:28;99994.59;;;-0.80
14666;BMP280;7420;53.574;10.040;2023-03-11T04:55:53;100012.19;;;-0.82
14666;BMP280;7420;53.574;10.040;2023-03-11T04:58:19;100016.44;;;-0.81
14666;BMP280;7420;53.574;10.040;2023-03-11T05:00:44;100016.59;;;-0.83
14666;BMP280;7420;53.574;10.040;2023-03-11T05:03:10;100016.44;;;-0.81
14666;BMP280;7420;53.574;10.040;2023-03-11T05:05:35;100012.00;;;-0.89
14666;BMP280;7420;53.574;10.040;2023-03-11T05:08:01;100028.75;;;-0.91
14666;BMP280;7420;53.574;10.040;2023-03-11T05:10:26;100034.06;;;-1.01
14666;BMP280;7420;53.574;10.040;2023-03-11T05:12:51;100028.84;;;-1.01
14666;BMP280;7420;53.574;10.040;2023-03-11T05:15:17;100038.19;;;-0.98
14666;BMP280;7420;53.574;10.040;2023-03-11T05:17:43;100048.44;;;-0.97
14666;BMP280;7420;53.574;10.040;2023-03-11T05:20:09;100046.97;;;-0.99
14666;BMP280;7420;53.574;10.040;2023-03-11T05:22:35;100050.56;;;-1.00
14666;BMP280;7420;53.574;10.040;2023-03-11T05:25:01;100060.25;;;-1.10
14666;BMP280;7420;53.574;10.040;2023-03-11T05:27:27;100077.22;;;-1.06
14666;BMP280;7420;53.574;10.040;2023-03-11T05:29:52;100074.38;;;-1.13
14666;BMP280;7420;53.574;10.040;2023-03-11T05:32:18;100080.72;;;-1.15
14666;BMP280;7420;53.574;10.040;2023-03-11T05:34:44;100084.16;;;-1.15
14666;BMP280;7420;53.574;10.040;2023-03-11T05:37:10;100089.91;;;-1.11
14666;BMP280;7420;53.574;10.040;2023-03-11T05:39:35;100092.94;;;-1.16
14666;BMP280;7420;53.574;10.040;2023-03-11T05:42:02;100090.78;;;-1.20
14666;BMP280;7420;53.574;10.040;2023-03-11T05:44:28;100100.16;;;-1.27
14666;BMP280;7420;53.574;10.040;2023-03-11T05:46:53;100106.22;;;-1.26
14666;BMP280;7420;53.574;10.040;2023-03-11T05:49:19;100122.66;;;-1.26
14666;BMP280;7420;53.574;10.040;2023-03-11T05:51:45;100107.31;;;-1.29
14666;BMP280;7420;53.574;10.040;2023-03-11T05:54:11;100116.41;;;-1.33
14666;BMP280;7420;53.574;10.040;2023-03-11T05:56:40;100108.56;;;-1.33
14666;BMP280;7420;53.574;10.040;2023-03-11T05:59:06;100116.47;;;-1.42
14666;BMP280;7420;53.574;10.040;2023-03-11T06:01:32;100126.31;;;-1.36
14666;BMP280;7420;53.574;10.040;2023-03-11T06:03:58;100115.88;;;-1.36
14666;BMP280;7420;53.574;10.040;2023-03-11T06:06:24;100127.94;;;-1.35
14666;BMP280;7420;53.574;10.040;2023-03-11T06:08:49;100133.38;;;-1.29
14666;BMP280;7420;53.574;10.040;2023-03-11T06:11:15;100142.06;;;-1.28
14666;BMP280;7420;53.574;10.040;2023-03-11T06:13:41;100148.06;;;-1.28
14666;BMP280;7420;53.574;10.040;2023-03-11T06:16:07;100137.22;;;-1.23
14666;BMP280;7420;53.574;10.040;2023-03-11T06:18:33;100140.63;;;-1.23
14666;BMP280;7420;53.574;10.040;2023-03-11T06:21:00;100142.56;;;-1.25
14666;BMP280;7420;53.574;10.040;2023-03-11T06:23:26;100157.69;;;-1.28
14666;BMP280;7420;53.574;10.040;2023-03-11T06:25:59;100155.97;;;-1.37
14666;BMP280;7420;53.574;10.040;2023-03-11T06:28:25;100164.09;;;-1.23
14666;BMP280;7420;53.574;10.040;2023-03-11T06:30:51;100169.19;;;-1.21
14666;BMP280;7420;53.574;10.040;2023-03-11T06:33:17;100169.84;;;-1.19
14666;BMP280;7420;53.574;10.040;2023-03-11T06:35:42;100182.06;;;-1.20
14666;BMP280;7420;53.574;10.040;2023-03-11T06:38:08;100179.31;;;-1.18
14666;BMP280;7420;53.574;10.040;2023-03-11T06:40:35;100180.13;;;-1.18
14666;BMP280;7420;53.574;10.040;2023-03-11T06:43:00;100186.91;;;-1.08
14666;BMP280;7420;53.574;10.040;2023-03-11T06:45:26;100189.97;;;-1.12
14666;BMP280;7420;53.574;10.040;2023-03-11T06:47:52;100195.00;;;-1.01
14666;BMP280;7420;53.574;10.040;2023-03-11T06:50:17;100189.50;;;-0.98
14666;BMP280;7420;53.574;10.040;2023-03-11T06:52:43;100209.28;;;-1.05
14666;BMP280;7420;53.574;10.040;2023-03-11T06:55:08;100200.72;;;-0.98
14666;BMP280;7420;53.574;10.040;2023-03-11T06:57:34;100213.59;;;-0.96
14666;BMP280;7420;53.574;10.040;2023-03-11T06:59:59;100220.72;;;-0.89
14666;BMP280;7420;53.574;10.040;2023-03-11T07:02:24;100227.28;;;-0.85
14666;BMP280;7420;53.574;10.040;2023-03-11T07:04:50;100223.06;;;-0.95
14666;BMP280;7420;53.574;10.040;2023-03-11T07:07:16;100231.38;;;-0.82
14666;BMP280;7420;53.574;10.040;2023-03-11T07:09:41;100235.63;;;-0.81
14666;BMP280;7420;53.574;10.040;2023-03-11T07:12:07;100244.13;;;-0.79
14666;BMP280;7420;53.574;10.040;2023-03-11T07:14:33;100247.78;;;-0.72
14666;BMP280;7420;53.574;10.040;2023-03-11T07:16:58;100247.78;;;-0.72
14666;BMP280;7420;53.574;10.040;2023-03-11T07:19:24;100248.31;;;-0.69
14666;BMP280;7420;53.574;10.040;2023-03-11T07:21:49;100245.41;;;-0.66
14666;BMP280;7420;53.574;10.040;2023-03-11T07:24:15;100257.34;;;-0.63
14666;BMP280;7420;53.574;10.040;2023-03-11T07:26:40;100254.81;;;-0.55
14666;BMP280;7420;53.574;10.040;2023-03-11T07:29:07;100257.13;;;-0.52
14666;BMP280;7420;53.574;10.040;2023-03-11T07:31:33;100262.19;;;-0.51
14666;BMP280;7420;53.574;10.040;2023-03-11T07:34:01;100264.81;;;-0.51
14666;BMP280;7420;53.574;10.040;2023-03-11T07:36:27;100272.66;;;-0.51
14666;BMP280;7420;53.574;10.040;2023-03-11T07:38:55;100271.13;;;-0.36
14666;BMP280;7420;53.574;10.040;2023-03-11T07:41:22;100276.91;;;-0.32
14666;BMP280;7420;53.574;10.040;2023-03-11T07:43:48;100283.75;;;-0.31
14666;BMP280;7420;53.574;10.040;2023-03-11T07:46:15;100290.38;;;-0.19
14666;BMP280;7420;53.574;10.040;2023-03-11T07:48:43;100299.63;;;-0.07
14666;BMP280;7420;53.574;10.040;2023-03-11T07:51:11;100288.31;;;-0.16
14666;BMP280;7420;53.574;10.040;2023-03-11T07:53:37;100311.66;;;-0.14
14666;BMP280;7420;53.574;10.040;2023-03-11T07:56:05;100304.19;;;-0.09
14666;BMP280;7420;53.574;10.040;2023-03-11T07:58:31;100318.97;;;-0.01
14666;BMP280;7420;53.574;10.040;2023-03-11T08:03:28;100322.34;;;-0.08
14666;BMP280;7420;53.574;10.040;2023-03-11T08:05:53;100333.44;;;0.11
14666;BMP280;7420;53.574;10.040;2023-03-11T08:08:19;100328.81;;;0.05
14666;BMP280;7420;53.574;10.040;2023-03-11T08:10:44;100329.69;;;0.14
14666;BMP280;7420;53.574;10.040;2023-03-11T08:13:09;100339.63;;;0.28
14666;BMP280;7420;53.574;10.040;2023-03-11T08:15:36;100350.59;;;0.31
14666;BMP280;7420;53.574;10.040;2023-03-11T08:18:01;100355.31;;;0.28
14666;BMP280;7420;53.574;10.040;2023-03-11T08:20:26;100364.63;;;0.30
14666;BMP280;7420;53.574;10.040;2023-03-11T08:22:52;100363.22;;;0.36
14666;BMP280;7420;53.574;10.040;2023-03-11T08:25:17;100368.34;;;0.45
14666;BMP280;7420;53.574;10.040;2023-03-11T08:27:42;100372.59;;;0.46
14666;BMP280;7420;53.574;10.040;2023-03-11T08:30:08;100371.63;;;0.47
14666;BMP280;7420;53.574;10.040;2023-03-11T08:32:34;100375.28;;;0.54
14666;BMP280;7420;53.574;10.040;2023-03-11T08:35:00;100384.78;;;0.55
14666;BMP280;7420;53.574;10.040;2023-03-11T08:37:25;100387.13;;;0.66
14666;BMP280;7420;53.574;10.040;2023-03-11T08:39:50;100384.88;;;0.71
14666;BMP280;7420;53.574;10.040;2023-03-11T08:42:16;100391.75;;;0.72
14666;BMP280;7420;53.574;10.040;2023-03-11T08:44:42;100391.63;;;0.82
14666;BMP280;7420;53.574;10.040;2023-03-11T08:47:07;100402.09;;;0.82
14666;BMP280;7420;53.574;10.040;2023-03-11T08:49:32;100407.34;;;0.82
14666;BMP280;7420;53.574;10.040;2023-03-11T08:51:58;100405.69;;;0.81
14666;BMP280;7420;53.574;10.040;2023-03-11T08:54:23;100412.78;;;0.88
14666;BMP280;7420;53.574;10.040;2023-03-11T08:56:49;100403.97;;;0.89
14666;BMP280;7420;53.574;10.040;2023-03-11T08:59:14;100416.09;;;0.90
14666;BMP280;7420;53.574;10.040;2023-03-11T09:01:39;100412.50;;;0.91
14666;BMP280;7420;53.574;10.040;2023-03-11T09:04:07;100429.53;;;0.95
14666;BMP280;7420;53.574;10.040;2023-03-11T09:06:32;100424.31;;;1.03
14666;BMP280;7420;53.574;10.040;2023-03-11T09:08:58;100420.41;;;1.07
14666;BMP280;7420;53.574;10.040;2023-03-11T09:11:23;100420.16;;;1.18
14666;BMP280;7420;53.574;10.040;2023-03-11T09:13:49;100425.09;;;1.21
14666;BMP280;7420;53.574;10.040;2023-03-11T09:16:18;100419.53;;;1.24
14666;BMP280;7420;53.574;10.040;2023-03-11T09:18:44;100422.81;;;1.26
14666;BMP280;7420;53.574;10.040;2023-03-11T09:21:10;100427.13;;;1.35
14666;BMP280;7420;53.574;10.040;2023-03-11T09:23:36;100432.38;;;1.43
14666;BMP280;7420;53.574;10.040;2023-03-11T09:26:01;100433.88;;;1.45
14666;BMP280;7420;53.574;10.040;2023-03-11T09:28:27;100439.97;;;1.54
14666;BMP280;7420;53.574;10.040;2023-03-11T09:30:52;100441.75;;;1.45
14666;BMP280;7420;53.574;10.040;2023-03-11T09:33:17;100441.78;;;1.53
14666;BMP280;7420;53.574;10.040;2023-03-11T09:35:43;100440.50;;;1.65
14666;BMP280;7420;53.574;10.040;2023-03-11T09:38:09;100445.91;;;1.64
14666;BMP280;7420;53.574;10.040;2023-03-11T09:41:07;100454.13;;;1.69
14666;BMP280;7420;53.574;10.040;2023-03-11T09:51:41;100459.13;;;1.96
14666;BMP280;7420;53.574;10.040;2023-03-11T09:54:11;100448.88;;;1.77
14666;BMP280;7420;53.574;10.040;2023-03-11T09:56:37;100452.22;;;1.95
14666;BMP280;7420;53.574;10.040;2023-03-11T09:59:30;100467.59;;;1.82
14666;BMP280;7420;53.574;10.040;2023-03-11T10:01:56;100453.06;;;1.95
14666;BMP280;7420;53.574;10.040;2023-03-11T10:04:26;100466.50;;;2.00
14666;BMP280;7420;53.574;10.040;2023-03-11T10:06:53;100473.56;;;2.08
14666;BMP280;7420;53.574;10.040;2023-03-11T10:09:36;100470.97;;;2.08
14666;BMP280;7420;53.574;10.040;2023-03-11T10:12:19;100469.97;;;2.09
14666;BMP280;7420;53.574;10.040;2023-03-11T10:15:12;100485.09;;;2.30
14666;BMP280;7420;53.574;10.040;2023-03-11T10:17:56;100485.72;;;2.17
14666;BMP280;7420;53.574;10.040;2023-03-11T10:28:28;100474.63;;;2.62
14666;BMP280;7420;53.574;10.040;2023-03-11T10:33:51;100478.03;;;2.39
14666;BMP280;7420;53.574;10.040;2023-03-11T10:36:22;100475.28;;;2.40
14666;BMP280;7420;53.574;10.040;2023-03-11T10:38:50;100475.44;;;2.47
14666;BMP280;7420;53.574;10.040;2023-03-11T10:41:18;100483.97;;;2.57
14666;BMP280;7420;53.574;10.040;2023-03-11T10:43:50;100486.78;;;2.47
14666;BMP280;7420;53.574;10.040;2023-03-11T10:46:19;100481.03;;;2.60
14666;BMP280;7420;53.574;10.040;2023-03-11T10:48:47;100477.91;;;2.64
14666;BMP280;7420;53.574;10.040;2023-03-11T10:51:19;100489.41;;;2.71
14666;BMP280;7420;53.574;10.040;2023-03-11T10:53:57;100479.56;;;2.73
14666;BMP280;7420;53.574;10.040;2023-03-11T10:56:42;100477.59;;;2.83
14666;BMP280;7420;53.574;10.040;2023-03-11T11:00:05;100498.28;;;2.86
14666;BMP280;7420;53.574;10.040;2023-03-11T11:07:32;100491.53;;;3.08
14666;BMP280;7420;53.574;10.040;2023-03-11T11:12:35;100487.06;;;3.24
14666;BMP280;7420;53.574;10.040;2023-03-11T11:15:01;100503.81;;;3.31
14666;BMP280;7420;53.574;10.040;2023-03-11T11:17:31;100491.81;;;3.21
14666;BMP280;7420;53.574;10.040;2023-03-11T11:19:58;100501.13;;;3.39
14666;BMP280;7420;53.574;10.040;2023-03-11T11:22:25;100486.09;;;3.71
14666;BMP280;7420;53.574;10.040;2023-03-11T11:24:53;100483.19;;;3.58
14666;BMP280;7420;53.574;10.040;2023-03-11T11:27:24;100487.53;;;3.82
14666;BMP280;7420;53.574;10.040;2023-03-11T11:32:34;100477.28;;;3.56
14666;BMP280;7420;53.574;10.040;2023-03-11T11:35:11;100479.16;;;3.86
14666;BMP280;7420;53.574;10.040;2023-03-11T11:43:26;100491.66;;;4.67
14666;BMP280;7420;53.574;10.040;2023-03-11T11:45:54;100486.16;;;4.02
14666;BMP280;7420;53.574;10.040;2023-03-11T11:48:42;100483.84;;;3.99
14666;BMP280;7420;53.574;10.040;2023-03-11T11:51:23;100474.75;;;4.40
14666;BMP280;7420;53.574;10.040;2023-03-11T11:53:55;100479.97;;;4.70
14666;BMP280;7420;53.574;10.040;2023-03-11T11:56:23;100477.81;;;4.88
14666;BMP280;7420;53.574;10.040;2023-03-11T11:58:49;100482.00;;;5.34
14666;BMP280;7420;53.574;10.040;2023-03-11T12:01:18;100480.00;;;5.36
14666;BMP280;7420;53.574;10.040;2023-03-11T12:04:11;100469.06;;;5.10
14666;BMP280;7420;53.574;10.040;2023-03-11T12:09:49;100466.97;;;4.68
14666;BMP280;7420;53.574;10.040;2023-03-11T12:15:15;100479.56;;;4.73
14666;BMP280;7420;53.574;10.040;2023-03-11T12:17:44;100466.66;;;4.63
14666;BMP280;7420;53.574;10.040;2023-03-11T12:20:18;100472.22;;;5.05
14666;BMP280;7420;53.574;10.040;2023-03-11T12:28:22;100477.66;;;5.55
14666;BMP280;7420;53.574;10.040;2023-03-11T12:30:56;100467.91;;;5.99
14666;BMP280;7420;53.574;10.040;2023-03-11T12:35:56;100461.38;;;5.95
14666;BMP280;7420;53.574;10.040;2023-03-11T12:38:32;100468.00;;;5.76
14666;BMP280;7420;53.574;10.040;2023-03-11T12:46:10;100460.38;;;5.67
14666;BMP280;7420;53.574;10.040;2023-03-11T12:48:57;100466.25;;;6.96
14666;BMP280;7420;53.574;10.040;2023-03-11T12:54:20;100465.63;;;7.89
14666;BMP280;7420;53.574;10.040;2023-03-11T12:56:53;100473.31;;;6.12
14666;BMP280;7420;53.574;10.040;2023-03-11T13:12:52;100466.00;;;5.35
14666;BMP280;7420;53.574;10.040;2023-03-11T13:28:23;100505.44;;;7.13
14666;BMP280;7420;53.574;10.040;2023-03-11T13:33:30;100484.22;;;8.62
14666;BMP280;7420;53.574;10.040;2023-03-11T13:36:13;100484.78;;;7.91
14666;BMP280;7420;53.574;10.040;2023-03-11T13:38:57;100477.31;;;7.06
14666;BMP280;7420;53.574;10.040;2023-03-11T13:41:35;100505.34;;;7.55
14666;BMP280;7420;53.574;10.040;2023-03-11T13:44:26;100504.34;;;8.50
14666;BMP280;7420;53.574;10.040;2023-03-11T13:47:36;100503.63;;;9.59
14666;BMP280;7420;53.574;10.040;2023-03-11T13:52:24;100498.81;;;10.00
14666;BMP280;7420;53.574;10.040;2023-03-11T13:55:19;100484.22;;;9.52
14666;BMP280;7420;53.574;10.040;2023-03-11T13:57:55;100495.81;;;7.67
14666;BMP280;7420;53.574;10.040;2023-03-11T14:00:29;100502.25;;;7.52
14666;BMP280;7420;53.574;10.040;2023-03-11T14:02:57;100485.94;;;7.14
14666;BMP280;7420;53.574;10.040;2023-03-11T14:07:48;100482.13;;;6.96
14666;BMP280;7420;53.574;10.040;2023-03-11T14:12:41;100496.09;;;5.69
14666;BMP280;7420;53.574;10.040;2023-03-11T14:15:08;100488.03;;;6.00
14666;BMP280;7420;53.574;10.040;2023-03-11T14:17:36;100539.31;;;13.11
14666;BMP280;7420;53.574;10.040;2023-03-11T14:20:03;100549.88;;;14.72
14666;BMP280;7420;53.574;10.040;2023-03-11T14:22:30;100541.00;;;14.43
14666;BMP280;7420;53.574;10.040;2023-03-11T14:24:57;100482.53;;;8.35
14666;BMP280;7420;53.574;10.040;2023-03-11T14:27:23;100488.75;;;6.85
14666;BMP280;7420;53.574;10.040;2023-03-11T14:29:48;100492.31;;;6.57
14666;BMP280;7420;53.574;10.040;2023-03-11T14:32:34;100503.88;;;6.56
14666;BMP280;7420;53.574;10.040;2023-03-11T14:34:59;100545.00;;;17.07
14666;BMP280;7420;53.574;10.040;2023-03-11T14:37:37;100555.84;;;19.97
14666;BMP280;7420;53.574;10.040;2023-03-11T14:40:18;100566.94;;;15.92
14666;BMP280;7420;53.574;10.040;2023-03-11T14:42:45;100535.69;;;7.93
14666;BMP280;7420;53.574;10.040;2023-03-11T14:45:15;100499.81;;;6.75
14666;BMP280;7420;53.574;10.040;2023-03-11T14:50:22;100498.66;;;6.42
14666;BMP280;7420;53.574;10.040;2023-03-11T14:52:57;100489.66;;;6.01
14666;BMP280;7420;53.574;10.040;2023-03-11T14:55:35;100498.19;;;5.74
14666;BMP280;7420;53.574;10.040;2023-03-11T14:58:25;100493.75;;;5.60
14666;BMP280;7420;53.574;10.040;2023-03-11T15:01:10;100498.91;;;5.39
14666;BMP280;7420;53.574;10.040;2023-03-11T15:03:45;100500.16;;;5.29
14666;BMP280;7420;53.574;10.040;2023-03-11T15:06:17;100485.13;;;5.15
14666;BMP280;7420;53.574;10.040;2023-03-11T15:08:46;100512.56;;;5.57
14666;BMP280;7420;53.574;10.040;2023-03-11T15:13:39;100512.34;;;9.73
14666;BMP280;7420;53.574;10.040;2023-03-11T15:16:20;100513.44;;;10.66
14666;BMP280;7420;53.574;10.040;2023-03-11T15:18:47;100516.66;;;6.74
14666;BMP280;7420;53.574;10.040;2023-03-11T15:21:18;100502.75;;;5.94
14666;BMP280;7420;53.574;10.040;2023-03-11T15:23:51;100490.47;;;5.58
14666;BMP280;7420;53.574;10.040;2023-03-11T15:26:31;100504.09;;;5.47
14666;BMP280;7420;53.574;10.040;2023-03-11T15:29:02;100493.53;;;5.18
14666;BMP280;7420;53.574;10.040;2023-03-11T15:31:29;100492.31;;;5.06
14666;BMP280;7420;53.574;10.040;2023-03-11T15:34:07;100488.69;;;5.07
14666;BMP280;7420;53.574;10.040;2023-03-11T15:36:36;100485.50;;;5.12
14666;BMP280;7420;53.574;10.040;2023-03-11T15:39:39;100476.56;;;6.28
14666;BMP280;7420;53.574;10.040;2023-03-11T15:44:35;100473.81;;;6.01
14666;BMP280;7420;53.574;10.040;2023-03-11T15:47:04;100470.00;;;5.60
14666;BMP280;7420;53.574;10.040;2023-03-11T15:49:30;100484.25;;;5.22
14666;BMP280;7420;53.574;10.040;2023-03-11T15:52:00;100479.34;;;4.82
14666;BMP280;7420;53.574;10.040;2023-03-11T15:54:26;100495.97;;;4.83
14666;BMP280;7420;53.574;10.040;2023-03-11T15:56:52;100495.38;;;4.73
14666;BMP280;7420;53.574;10.040;2023-03-11T15:59:19;100490.31;;;4.71
14666;BMP280;7420;53.574;10.040;2023-03-11T16:01:45;100494.38;;;4.29
14666;BMP280;7420;53.574;10.040;2023-03-11T16:04:16;100525.16;;;4.21
14666;BMP280;7420;53.574;10.040;2023-03-11T16:06:42;100526.22;;;3.57
14666;BMP280;7420;53.574;10.040;2023-03-11T16:09:09;100519.25;;;3.10
14666;BMP280;7420;53.574;10.040;2023-03-11T16:11:35;100515.63;;;2.95